Myrtle Beach, South Carolina
Current Conditions -  °F | °C
As of 12:07 PM on Sunday 23 Nov 2014 (Local Time) from KMYR Reporting Station
Light Rain Light Rain  
Wind Chill: 61°   Ceiling: 600
Heat Index: 61°   Visibility: 6mi
Dew Point: 57°   Wind: 16mph
Humidity: 88%   Direction: 100°E
Pressure: 30.07"   Gusts: NA
Location:  33.69°N, 78.88°W
Report Text: KMYR 231707Z 10014KT 6SM -RA BR BKN006 BKN020 OVC060 16/14 A3007
Loading
Personal Weather Stations






























Interactive Weather Map New forecast layout! Learn more

10-Day Weather Forecast

Advertisements
Track Severe Weather on mobile